createdAt,value
2023-04-19T00:00:38.308Z,22.98
2023-04-19T00:03:10.815Z,22.98
2023-04-19T00:05:41.711Z,22.98
2023-04-19T00:08:11.315Z,22.63
2023-04-19T00:10:41.519Z,22.98
2023-04-19T00:13:11.162Z,22.98
2023-04-19T00:15:40.980Z,100.00
2023-04-19T00:18:13.126Z,22.98
2023-04-19T00:20:43.033Z,100.00
2023-04-19T00:23:12.768Z,100.00
2023-04-19T00:25:42.500Z,100.00
2023-04-19T00:28:12.113Z,22.98
2023-04-19T00:30:41.663Z,22.98
2023-04-19T00:33:15.440Z,22.89
2023-04-19T00:35:44.972Z,22.98
2023-04-19T00:38:14.507Z,22.98
2023-04-19T00:40:44.089Z,100.00
2023-04-19T00:43:13.659Z,100.00
2023-04-19T00:45:43.346Z,100.00
2023-04-19T00:48:16.011Z,100.00
2023-04-19T00:50:45.800Z,100.00
2023-04-19T00:53:15.353Z,100.00
2023-04-19T00:55:44.949Z,100.00
2023-04-19T00:58:14.480Z,80.56
2023-04-19T01:00:43.991Z,100.00
2023-04-19T01:03:17.115Z,100.00
2023-04-19T01:05:46.793Z,100.00
2023-04-19T01:08:16.768Z,100.00
2023-04-19T01:10:46.325Z,100.00
2023-04-19T01:13:15.853Z,22.98
2023-04-19T01:15:45.490Z,22.98
2023-04-19T01:18:19.489Z,100.00
2023-04-19T01:20:49.068Z,22.98
2023-04-19T01:23:21.616Z,22.98
2023-04-19T01:25:51.171Z,100.00
2023-04-19T01:28:20.690Z,22.98
2023-04-19T01:30:51.287Z,100.00
2023-04-19T01:33:21.034Z,100.00
2023-04-19T01:35:50.672Z,22.98
2023-04-19T01:38:23.005Z,22.98
2023-04-19T01:40:52.512Z,22.98
2023-04-19T01:43:22.067Z,100.00
2023-04-19T01:45:51.610Z,22.98
2023-04-19T01:48:21.183Z,22.98
2023-04-19T01:50:50.732Z,100.00
2023-04-19T01:53:23.092Z,100.00
2023-04-19T01:55:52.685Z,22.98
2023-04-19T01:58:22.266Z,22.98
2023-04-19T02:00:51.871Z,22.98
2023-04-19T02:03:21.720Z,100.00
2023-04-19T02:05:51.383Z,22.98
2023-04-19T02:08:23.518Z,100.00
2023-04-19T02:10:53.156Z,100.00
2023-04-19T02:13:22.683Z,100.00
2023-04-19T02:15:52.223Z,22.98
2023-04-19T02:18:21.782Z,100.00
2023-04-19T02:20:51.319Z,22.98
2023-04-19T02:23:23.442Z,22.98
2023-04-19T02:25:53.614Z,22.98
2023-04-19T02:28:23.216Z,22.98
2023-04-19T02:30:52.751Z,0.00
2023-04-19T02:33:22.342Z,22.98
2023-04-19T02:35:51.865Z,22.98
2023-04-19T02:38:24.032Z,0.00
2023-04-19T02:40:53.788Z,0.00
2023-04-19T02:43:23.350Z,22.98
2023-04-19T02:45:53.802Z,22.98
2023-04-19T02:48:23.750Z,0.00
2023-04-19T02:50:53.291Z,100.00
2023-04-19T02:53:25.709Z,100.00
2023-04-19T02:55:55.417Z,22.98
2023-04-19T02:58:24.977Z,22.98
2023-04-19T03:00:54.526Z,22.98
2023-04-19T03:03:24.194Z,22.98
2023-04-19T03:05:53.754Z,22.98
2023-04-19T03:08:26.322Z,0.00
2023-04-19T03:10:55.873Z,22.98
2023-04-19T03:13:25.680Z,22.98
2023-04-19T03:15:55.952Z,22.98
2023-04-19T03:18:25.600Z,0.00
2023-04-19T03:20:55.138Z,0.00
2023-04-19T03:23:28.696Z,0.00
2023-04-19T03:25:58.250Z,0.00
2023-04-19T03:28:27.911Z,0.00
2023-04-19T03:30:57.495Z,0.00
2023-04-19T03:33:27.220Z,0.00
2023-04-19T03:35:56.969Z,0.00
2023-04-19T03:38:29.114Z,0.00
2023-04-19T03:40:58.691Z,0.00
2023-04-19T03:43:28.320Z,0.00
2023-04-19T03:45:57.891Z,0.00
2023-04-19T03:48:28.120Z,0.00
2023-04-19T03:50:57.651Z,0.00
2023-04-19T03:53:29.783Z,0.00
2023-04-19T03:55:59.327Z,0.00
2023-04-19T03:58:28.941Z,100.00
2023-04-19T04:00:58.638Z,0.00
2023-04-19T04:03:28.445Z,0.00
2023-04-19T04:05:58.237Z,0.00
2023-04-19T04:08:30.423Z,0.00
2023-04-19T04:10:59.957Z,0.00
2023-04-19T04:13:29.531Z,0.00
2023-04-19T04:15:59.135Z,0.00
2023-04-19T04:18:28.808Z,0.00
2023-04-19T04:20:58.337Z,0.00
2023-04-19T04:23:31.205Z,0.00
2023-04-19T04:26:02.616Z,0.00
2023-04-19T04:28:32.177Z,0.00
2023-04-19T04:31:02.012Z,0.00
2023-04-19T04:33:31.565Z,0.00
2023-04-19T04:36:01.090Z,0.00
2023-04-19T04:38:33.649Z,0.00
2023-04-19T04:41:03.250Z,0.00
2023-04-19T04:43:33.719Z,0.00
2023-04-19T04:46:04.405Z,0.00
2023-04-19T04:48:34.116Z,0.00
2023-04-19T04:51:03.872Z,0.00
2023-04-19T04:53:36.054Z,0.00
2023-04-19T04:56:05.610Z,0.00
2023-04-19T04:58:35.174Z,0.00
2023-04-19T05:01:04.888Z,0.00
2023-04-19T05:03:34.522Z,100.00
2023-04-19T05:06:04.089Z,0.00
2023-04-19T05:08:36.225Z,0.00
2023-04-19T05:11:05.862Z,100.00
2023-04-19T05:13:35.418Z,0.00
2023-04-19T05:16:05.006Z,0.00
2023-04-19T05:18:34.580Z,0.00
2023-04-19T05:21:04.109Z,0.00
2023-04-19T05:23:36.389Z,100.00
2023-04-19T05:26:05.932Z,0.00
2023-04-19T05:28:35.531Z,22.98
2023-04-19T05:31:05.168Z,100.00
2023-04-19T05:33:35.178Z,100.00
2023-04-19T05:36:04.730Z,100.00
2023-04-19T05:38:36.903Z,100.00
2023-04-19T05:41:06.506Z,0.00
2023-04-19T05:43:36.492Z,0.00
2023-04-19T05:46:06.078Z,22.98
2023-04-19T05:48:35.896Z,0.00
2023-04-19T05:51:05.542Z,0.00
2023-04-19T05:53:37.681Z,0.00
2023-04-19T05:56:08.061Z,23.55
2023-04-19T05:58:37.618Z,0.00
2023-04-19T06:01:07.424Z,0.00
2023-04-19T06:03:37.169Z,0.00
2023-04-19T06:06:07.348Z,0.00
2023-04-19T06:08:39.555Z,0.00
2023-04-19T06:11:20.092Z,0.00
2023-04-19T06:13:52.815Z,0.00
2023-04-19T06:16:22.529Z,0.00
2023-04-19T06:18:52.061Z,0.00
2023-04-19T06:21:21.635Z,0.00
2023-04-19T06:23:53.814Z,0.00
2023-04-19T06:26:23.339Z,0.00
2023-04-19T06:28:52.826Z,0.00
2023-04-19T06:31:22.482Z,100.00
2023-04-19T06:33:52.099Z,23.57
2023-04-19T10:31:27.927Z,23.52
2023-04-19T10:33:57.986Z,23.52
2023-04-19T10:36:28.090Z,23.52
2023-04-19T10:38:57.916Z,23.52
2023-04-19T10:41:27.931Z,23.52
2023-04-19T10:44:12.120Z,23.52
2023-04-19T10:46:46.581Z,23.52
2023-04-19T10:49:16.357Z,23.52
2023-04-19T10:54:32.666Z,23.54
2023-04-19T10:57:04.743Z,23.52
2023-04-19T10:59:34.681Z,23.54
2023-04-19T11:02:07.304Z,23.54
2023-04-19T11:05:02.036Z,23.58
2023-04-19T11:07:31.619Z,23.59
2023-04-19T11:10:01.193Z,23.58
2023-04-19T11:12:30.805Z,23.54
2023-04-19T11:15:01.219Z,23.54
2023-04-19T11:17:34.243Z,23.58
2023-04-19T11:20:07.019Z,23.54
2023-04-19T11:22:37.560Z,23.54
2023-04-19T11:25:14.825Z,23.59
2023-04-19T11:27:44.786Z,23.51
2023-04-19T11:30:15.541Z,23.54
2023-04-19T11:32:51.393Z,23.59
2023-04-19T11:35:22.425Z,23.59
2023-04-19T11:37:51.835Z,23.67
2023-04-19T11:40:22.062Z,23.59
2023-04-19T11:42:56.992Z,0.00
2023-04-19T11:45:33.186Z,23.54
2023-04-19T11:48:08.767Z,23.53
2023-04-19T11:50:41.613Z,23.52
2023-04-19T11:53:18.275Z,23.53
2023-04-19T11:55:52.293Z,23.55
2023-04-19T11:58:29.689Z,23.55
2023-04-19T12:01:01.036Z,23.53
2023-04-19T12:03:33.491Z,23.54
2023-04-19T12:06:09.230Z,23.55
2023-04-19T12:08:39.554Z,23.54
2023-04-19T12:11:09.400Z,23.53
2023-04-19T12:13:40.901Z,23.55
2023-04-19T12:16:10.656Z,23.54
2023-04-19T12:18:50.420Z,24.83
2023-04-19T12:21:31.038Z,23.54
2023-04-19T12:24:00.752Z,23.54
2023-04-19T12:26:31.176Z,23.59
2023-04-19T12:29:01.715Z,23.54
2023-04-19T12:31:32.296Z,23.75
2023-04-19T12:34:04.487Z,23.59
2023-04-19T12:36:34.395Z,23.55
2023-04-19T12:39:04.291Z,23.58
2023-04-19T12:41:33.934Z,23.54
2023-04-19T12:44:03.519Z,23.54
2023-04-19T12:46:33.169Z,23.54
2023-04-19T12:49:05.412Z,23.55
2023-04-19T12:51:36.305Z,23.55
2023-04-19T12:54:07.640Z,23.55
2023-04-19T12:56:37.372Z,23.54
2023-04-19T12:59:06.956Z,23.54
2023-04-19T13:01:36.612Z,23.54
2023-04-19T13:04:12.168Z,23.54
2023-04-19T13:06:42.568Z,23.54
2023-04-19T13:09:14.874Z,23.54
2023-04-19T13:11:44.955Z,23.52
2023-04-19T13:14:14.954Z,23.54
2023-04-19T13:16:44.787Z,23.54
2023-04-19T13:19:16.914Z,23.59
2023-04-19T13:21:46.789Z,25.42
2023-04-19T13:24:16.620Z,23.59
2023-04-19T13:26:46.771Z,23.58
2023-04-19T13:29:16.384Z,23.59
2023-04-19T13:31:47.293Z,23.59
2023-04-19T13:34:19.416Z,23.58
2023-04-19T13:36:48.992Z,43.86
2023-04-19T13:39:18.678Z,23.58
2023-04-19T13:41:48.229Z,23.58
2023-04-19T13:44:18.129Z,23.58
2023-04-19T13:46:47.939Z,23.58
2023-04-19T13:49:20.169Z,23.59
2023-04-19T13:51:51.013Z,23.59
2023-04-19T13:54:21.468Z,23.58
2023-04-19T13:56:52.313Z,23.54
2023-04-19T13:59:22.159Z,23.59
2023-04-19T14:01:51.723Z,23.59
2023-04-19T14:04:24.459Z,23.58
2023-04-19T14:06:54.608Z,23.54
2023-04-19T14:09:24.185Z,23.58
2023-04-19T14:11:53.906Z,26.05
2023-04-19T14:14:23.717Z,23.59
2023-04-19T14:16:53.468Z,23.59
2023-04-19T14:19:25.695Z,23.59
2023-04-19T14:21:55.267Z,23.54
2023-04-19T14:24:24.855Z,23.59
2023-04-19T14:27:07.230Z,23.58
2023-04-19T14:29:39.710Z,23.59
2023-04-19T14:32:24.186Z,23.58
2023-04-19T14:34:57.874Z,23.59
2023-04-19T14:37:27.430Z,23.58
2023-04-19T14:39:57.012Z,23.54
2023-04-19T14:42:26.590Z,23.58
2023-04-19T14:44:56.134Z,23.59
2023-04-19T14:47:25.740Z,23.59
2023-04-19T14:49:57.961Z,23.67
2023-04-19T14:52:27.670Z,23.59
2023-04-19T14:54:57.791Z,23.67
2023-04-19T14:57:27.410Z,23.58
2023-04-19T14:59:58.359Z,23.59
2023-04-19T15:02:27.935Z,23.59
2023-04-19T15:05:00.424Z,23.58
2023-04-19T15:07:30.184Z,23.55
2023-04-19T15:09:59.863Z,23.54
2023-04-19T15:12:29.426Z,23.54
2023-04-19T15:14:58.974Z,23.58
2023-04-19T15:17:28.658Z,23.54
2023-04-19T15:20:01.094Z,23.54
2023-04-19T15:22:30.844Z,23.58
2023-04-19T15:25:00.783Z,23.53
2023-04-19T15:27:30.367Z,23.54
2023-04-19T15:29:59.939Z,23.54
2023-04-19T15:32:34.301Z,23.54
2023-04-19T15:35:07.071Z,23.86
2023-04-19T15:37:36.634Z,23.54
2023-04-19T15:40:07.626Z,23.54
2023-04-19T15:42:36.953Z,23.58
2023-04-19T15:45:07.076Z,23.54
2023-04-19T15:47:36.772Z,23.59
2023-04-19T15:50:10.124Z,23.58
2023-04-19T15:52:39.689Z,23.58
2023-04-19T15:55:09.970Z,23.58
2023-04-19T15:57:39.568Z,23.54
2023-04-19T16:00:12.195Z,28.56
2023-04-19T16:02:42.321Z,24.14
2023-04-19T16:05:14.688Z,23.54
2023-04-19T16:07:45.387Z,23.54
2023-04-19T16:10:15.351Z,23.55
2023-04-19T16:12:46.172Z,23.54
2023-04-19T16:15:15.978Z,23.53
2023-04-19T16:17:46.005Z,23.54
2023-04-19T16:20:18.366Z,23.53
2023-04-19T16:22:47.897Z,23.53
2023-04-19T16:25:17.704Z,23.53
2023-04-19T16:27:48.301Z,23.53
2023-04-19T16:30:18.300Z,23.53
2023-04-19T16:32:47.882Z,23.52
2023-04-19T16:35:20.872Z,23.52
2023-04-19T16:37:50.428Z,23.53
2023-04-19T16:40:19.999Z,23.52
2023-04-19T16:42:49.560Z,23.52
2023-04-19T16:47:48.921Z,23.52
2023-04-19T16:50:21.126Z,23.99
2023-04-19T16:55:21.131Z,100.00
2023-04-19T16:57:51.279Z,100.00
2023-04-19T17:00:22.090Z,100.00
2023-04-19T17:02:52.167Z,100.00
2023-04-19T17:05:24.461Z,100.00
2023-04-19T17:07:56.130Z,22.98
2023-04-19T17:10:26.609Z,22.98
2023-04-19T17:12:57.052Z,22.98
2023-04-19T17:15:26.884Z,22.98
2023-04-19T17:17:57.141Z,22.98
2023-04-19T17:20:29.358Z,22.97
2023-04-19T17:22:58.920Z,22.98
2023-04-19T17:25:28.439Z,22.98
2023-04-19T17:27:57.996Z,100.00
2023-04-19T17:30:27.592Z,22.98
2023-04-19T17:32:57.212Z,22.98
2023-04-19T17:35:29.495Z,22.98
2023-04-19T17:37:59.056Z,22.98
2023-04-19T17:40:29.527Z,22.98
2023-04-19T17:42:59.438Z,0.00
2023-04-19T17:45:29.136Z,22.98
2023-04-19T17:47:58.744Z,22.98
2023-04-19T17:50:30.989Z,22.98
2023-04-19T17:53:00.551Z,22.98
2023-04-19T17:55:30.106Z,22.98
2023-04-19T17:57:59.791Z,0.00
2023-04-19T18:00:29.387Z,0.00
2023-04-19T18:02:59.088Z,0.00
2023-04-19T18:05:31.342Z,0.00
2023-04-19T18:08:01.127Z,0.00
2023-04-19T18:10:30.829Z,0.00
2023-04-19T18:13:00.356Z,0.00
2023-04-19T18:15:30.090Z,22.98
2023-04-19T18:17:59.673Z,0.00
2023-04-19T18:20:31.949Z,0.00
2023-04-19T18:23:02.005Z,0.00
2023-04-19T18:25:31.661Z,22.98
2023-04-19T18:28:01.221Z,0.00
2023-04-19T18:30:31.028Z,0.00
2023-04-19T18:33:00.643Z,0.00
2023-04-19T18:35:36.041Z,0.00
2023-04-19T18:38:05.614Z,0.00
2023-04-19T18:40:35.315Z,0.00
2023-04-19T18:43:04.852Z,0.00
2023-04-19T18:45:34.479Z,0.00
2023-04-19T18:48:04.298Z,0.00
2023-04-19T18:50:36.506Z,22.83
2023-04-19T18:53:06.061Z,22.98
2023-04-19T18:55:35.927Z,22.98
2023-04-19T18:58:06.223Z,22.98
2023-04-19T19:00:35.847Z,0.00
2023-04-19T19:03:05.834Z,0.00
2023-04-19T19:05:40.421Z,0.00
2023-04-19T19:08:10.062Z,0.00
2023-04-19T19:11:12.978Z,0.00
2023-04-19T19:13:29.195Z,0.00
2023-04-19T19:15:59.142Z,0.00
2023-04-19T19:18:29.563Z,22.98
2023-04-19T19:21:03.374Z,0.00
2023-04-19T19:23:38.325Z,0.00
2023-04-19T19:26:13.662Z,22.98
2023-04-19T19:28:43.378Z,0.00
2023-04-19T19:31:13.103Z,0.00
2023-04-19T19:33:50.099Z,22.98
2023-04-19T19:36:25.680Z,0.00
2023-04-19T19:38:55.217Z,0.00
2023-04-19T19:41:56.388Z,22.98
2023-04-19T19:44:14.303Z,0.00
2023-04-19T19:46:43.942Z,22.98
2023-04-19T19:49:13.707Z,0.00
2023-04-19T19:51:57.573Z,0.00
2023-04-19T19:54:28.430Z,22.98
2023-04-19T19:59:33.749Z,0.00
2023-04-19T20:02:04.725Z,0.00
2023-04-19T20:04:35.487Z,22.98
2023-04-19T20:07:29.353Z,0.00
2023-04-19T20:09:57.335Z,0.00
2023-04-19T20:12:26.978Z,0.00
2023-04-19T20:14:56.787Z,0.00
2023-04-19T20:17:26.441Z,22.98
2023-04-19T20:19:56.643Z,22.98
2023-04-19T20:22:28.792Z,22.98
2023-04-19T20:24:58.419Z,0.00
2023-04-19T20:27:28.001Z,22.98
2023-04-19T20:29:57.526Z,0.00
2023-04-19T20:32:27.199Z,0.00
2023-04-19T20:34:56.810Z,0.00
2023-04-19T20:37:30.116Z,22.98
2023-04-19T20:39:59.715Z,0.00
2023-04-19T20:42:29.339Z,22.98
2023-04-19T20:44:58.868Z,22.98
2023-04-19T20:47:28.490Z,22.98
2023-04-19T20:49:58.058Z,22.98
2023-04-19T20:52:30.226Z,100.00
2023-04-19T20:54:59.797Z,22.97
2023-04-19T20:57:29.408Z,22.98
2023-04-19T20:59:59.066Z,22.98
2023-04-19T21:02:28.764Z,100.00
2023-04-19T21:04:58.426Z,100.00
2023-04-19T21:07:30.596Z,100.00
2023-04-19T21:10:00.219Z,100.00
2023-04-19T21:12:29.829Z,100.00
2023-04-19T21:14:59.424Z,100.00
2023-04-19T21:17:28.985Z,100.00
2023-04-19T21:19:58.544Z,100.00
2023-04-19T21:22:30.735Z,100.00
2023-04-19T21:25:00.325Z,100.00
2023-04-19T21:27:31.976Z,100.00
2023-04-19T21:30:01.574Z,100.00
2023-04-19T21:32:31.204Z,100.00
2023-04-19T21:35:01.638Z,100.00
2023-04-19T21:37:33.771Z,100.00
2023-04-19T21:40:03.390Z,100.00
2023-04-19T21:42:32.946Z,100.00
2023-04-19T21:45:02.600Z,100.00
2023-04-19T21:47:32.261Z,100.00
2023-04-19T21:50:02.043Z,100.00
2023-04-19T21:52:34.220Z,100.00
2023-04-19T21:55:03.786Z,100.00
2023-04-19T21:57:33.346Z,100.00
2023-04-19T22:00:04.727Z,100.00
2023-04-19T22:02:34.371Z,100.00
2023-04-19T22:05:04.430Z,100.00
2023-04-19T22:07:38.280Z,100.00
2023-04-19T22:10:09.531Z,100.00
2023-04-19T22:12:51.207Z,100.00
2023-04-19T22:15:25.744Z,100.00
2023-04-19T22:17:55.379Z,100.00
2023-04-19T22:20:25.922Z,100.00
2023-04-19T22:22:58.108Z,100.00
2023-04-19T22:25:27.701Z,100.00
2023-04-19T22:27:57.292Z,100.00
2023-04-19T22:30:26.808Z,100.00
2023-04-19T22:32:56.433Z,100.00
2023-04-19T22:35:26.154Z,100.00
2023-04-19T22:37:58.325Z,100.00
2023-04-19T22:40:28.048Z,100.00
2023-04-19T22:42:57.650Z,100.00
2023-04-19T22:45:27.212Z,100.00
2023-04-19T22:47:56.787Z,100.00
2023-04-19T22:50:26.321Z,100.00
2023-04-19T22:52:58.450Z,100.00
2023-04-19T22:55:28.104Z,100.00
2023-04-19T22:57:57.653Z,100.00
2023-04-19T23:00:27.207Z,100.00
2023-04-19T23:02:58.453Z,100.00
2023-04-19T23:05:28.331Z,100.00
2023-04-19T23:08:02.814Z,100.00
2023-04-19T23:10:32.349Z,100.00
2023-04-19T23:13:01.937Z,100.00
2023-04-19T23:15:32.002Z,100.00
2023-04-19T23:18:03.972Z,100.00
2023-04-19T23:20:33.722Z,100.00
2023-04-19T23:23:05.901Z,100.00
2023-04-19T23:25:35.898Z,100.00
2023-04-19T23:28:05.476Z,100.00
2023-04-19T23:30:35.074Z,100.00
2023-04-19T23:33:04.658Z,100.00
2023-04-19T23:35:34.301Z,100.00
2023-04-19T23:38:06.461Z,100.00
2023-04-19T23:40:36.827Z,100.00
2023-04-19T23:43:06.544Z,100.00
2023-04-19T23:45:36.137Z,100.00
2023-04-19T23:48:06.208Z,100.00
2023-04-19T23:50:35.845Z,100.00
2023-04-19T23:53:08.600Z,100.00
2023-04-19T23:55:38.276Z,100.00
2023-04-19T23:58:07.855Z,100.00
